sensor_id;sensor_type;location;lat;lon;timestamp;pressure;altitude;pressure_sealevel;temperature;humidity
17209;BME280;8720;48.488;9.202;2023-03-11T00:00:14;95936.75;;;7.43;47.82
17209;BME280;8720;48.488;9.202;2023-03-11T00:02:44;95945.47;;;7.42;47.57
17209;BME280;8720;48.488;9.202;2023-03-11T00:05:16;95934.38;;;7.35;47.67
17209;BME280;8720;48.488;9.202;2023-03-11T00:07:44;95941.13;;;7.41;47.46
17209;BME280;8720;48.488;9.202;2023-03-11T00:10:15;95952.44;;;7.40;47.58
17209;BME280;8720;48.488;9.202;2023-03-11T00:12:42;95957.66;;;7.40;47.27
17209;BME280;8720;48.488;9.202;2023-03-11T00:15:12;95955.09;;;7.38;47.43
17209;BME280;8720;48.488;9.202;2023-03-11T00:17:39;95971.53;;;7.38;47.42
17209;BME280;8720;48.488;9.202;2023-03-11T00:20:17;95968.13;;;7.38;47.34
17209;BME280;8720;48.488;9.202;2023-03-11T00:22:45;95959.53;;;7.34;47.49
17209;BME280;8720;48.488;9.202;2023-03-11T00:25:13;95973.44;;;7.33;47.48
17209;BME280;8720;48.488;9.202;2023-03-11T00:27:41;95963.09;;;7.32;47.41
17209;BME280;8720;48.488;9.202;2023-03-11T00:30:13;95963.28;;;7.24;47.26
17209;BME280;8720;48.488;9.202;2023-03-11T00:32:40;95961.47;;;7.28;47.49
17209;BME280;8720;48.488;9.202;2023-03-11T00:35:12;95971.91;;;7.26;47.37
17209;BME280;8720;48.488;9.202;2023-03-11T00:37:41;95973.69;;;7.24;47.49
17209;BME280;8720;48.488;9.202;2023-03-11T00:40:13;95970.28;;;7.22;47.46
17209;BME280;8720;48.488;9.202;2023-03-11T00:42:41;95973.78;;;7.21;47.35
17209;BME280;8720;48.488;9.202;2023-03-11T00:45:11;95972.06;;;7.20;47.42
17209;BME280;8720;48.488;9.202;2023-03-11T00:47:39;95975.56;;;7.19;47.37
17209;BME280;8720;48.488;9.202;2023-03-11T00:50:13;95975.56;;;7.19;47.37
17209;BME280;8720;48.488;9.202;2023-03-11T00:52:43;95969.59;;;7.16;47.47
17209;BME280;8720;48.488;9.202;2023-03-11T00:55:14;95973.00;;;7.18;47.43
17209;BME280;8720;48.488;9.202;2023-03-11T00:57:43;95971.44;;;7.12;47.60
17209;BME280;8720;48.488;9.202;2023-03-11T01:00:15;95981.63;;;7.20;47.35
17209;BME280;8720;48.488;9.202;2023-03-11T01:02:43;95992.78;;;7.23;47.73
17209;BME280;8720;48.488;9.202;2023-03-11T01:05:11;95987.53;;;7.26;47.60
17209;BME280;8720;48.488;9.202;2023-03-11T01:07:39;95991.75;;;7.30;47.75
17209;BME280;8720;48.488;9.202;2023-03-11T01:10:09;95987.25;;;7.35;47.59
17209;BME280;8720;48.488;9.202;2023-03-11T01:12:37;95988.00;;;7.39;47.56
17209;BME280;8720;48.488;9.202;2023-03-11T01:15:06;95988.78;;;7.43;47.43
17209;BME280;8720;48.488;9.202;2023-03-11T01:17:35;95983.56;;;7.44;47.48
17209;BME280;8720;48.488;9.202;2023-03-11T01:20:03;95989.50;;;7.48;47.55
17209;BME280;8720;48.488;9.202;2023-03-11T01:22:34;95986.88;;;7.49;47.45
17209;BME280;8720;48.488;9.202;2023-03-11T01:25:01;95983.22;;;7.55;47.59
17209;BME280;8720;48.488;9.202;2023-03-11T01:27:29;95977.09;;;7.57;47.58
17209;BME280;8720;48.488;9.202;2023-03-11T01:29:57;95982.19;;;7.60;47.55
17209;BME280;8720;48.488;9.202;2023-03-11T01:32:24;95979.53;;;7.62;47.42
17209;BME280;8720;48.488;9.202;2023-03-11T01:34:53;95990.75;;;7.64;47.44
17209;BME280;8720;48.488;9.202;2023-03-11T01:37:20;95992.44;;;7.66;47.39
17209;BME280;8720;48.488;9.202;2023-03-11T01:39:48;95995.03;;;7.66;47.23
17209;BME280;8720;48.488;9.202;2023-03-11T01:42:15;95999.31;;;7.69;47.43
17209;BME280;8720;48.488;9.202;2023-03-11T01:44:43;96007.94;;;7.71;47.31
17209;BME280;8720;48.488;9.202;2023-03-11T01:47:37;95996.00;;;7.62;47.25
17209;BME280;8720;48.488;9.202;2023-03-11T01:50:11;95999.94;;;7.77;47.54
17209;BME280;8720;48.488;9.202;2023-03-11T01:52:41;96003.38;;;7.77;47.11
17209;BME280;8720;48.488;9.202;2023-03-11T01:55:11;95997.06;;;7.86;47.27
17209;BME280;8720;48.488;9.202;2023-03-11T01:57:42;96018.59;;;7.91;47.04
17209;BME280;8720;48.488;9.202;2023-03-11T02:00:13;95995.03;;;7.95;47.35
17209;BME280;8720;48.488;9.202;2023-03-11T02:02:45;95991.44;;;7.99;47.25
17209;BME280;8720;48.488;9.202;2023-03-11T02:05:19;95990.50;;;8.02;47.31
17209;BME280;8720;48.488;9.202;2023-03-11T02:07:48;95981.78;;;8.03;47.18
17209;BME280;8720;48.488;9.202;2023-03-11T02:10:19;95979.09;;;8.06;47.05
17209;BME280;8720;48.488;9.202;2023-03-11T02:12:49;95979.88;;;8.08;47.08
17209;BME280;8720;48.488;9.202;2023-03-11T02:15:27;95990.25;;;8.09;46.96
17209;BME280;8720;48.488;9.202;2023-03-11T02:17:58;95985.88;;;8.10;47.14
17209;BME280;8720;48.488;9.202;2023-03-11T02:20:39;95985.94;;;8.08;47.04
17209;BME280;8720;48.488;9.202;2023-03-11T02:23:13;95990.34;;;8.06;47.18
17209;BME280;8720;48.488;9.202;2023-03-11T02:25:52;96003.34;;;8.06;47.17
17209;BME280;8720;48.488;9.202;2023-03-11T02:28:24;95998.19;;;8.05;46.97
17209;BME280;8720;48.488;9.202;2023-03-11T02:30:55;95979.53;;;7.91;47.14
17209;BME280;8720;48.488;9.202;2023-03-11T02:33:27;95999.25;;;7.99;47.13
17209;BME280;8720;48.488;9.202;2023-03-11T02:35:57;95993.19;;;7.99;47.09
17209;BME280;8720;48.488;9.202;2023-03-11T02:38:25;96006.31;;;7.96;47.15
17209;BME280;8720;48.488;9.202;2023-03-11T02:40:55;95993.34;;;7.93;47.11
17209;BME280;8720;48.488;9.202;2023-03-11T02:43:34;96006.56;;;7.87;47.09
17209;BME280;8720;48.488;9.202;2023-03-11T02:46:05;96009.25;;;7.84;47.19
17209;BME280;8720;48.488;9.202;2023-03-11T02:48:36;96016.31;;;7.80;47.14
17209;BME280;8720;48.488;9.202;2023-03-11T02:51:04;96012.97;;;7.75;47.11
17209;BME280;8720;48.488;9.202;2023-03-11T02:53:39;96009.63;;;7.72;47.04
17209;BME280;8720;48.488;9.202;2023-03-11T02:56:07;95996.69;;;7.69;47.15
17209;BME280;8720;48.488;9.202;2023-03-11T02:58:36;96001.97;;;7.66;47.13
17209;BME280;8720;48.488;9.202;2023-03-11T03:01:11;95980.56;;;7.56;47.13
17209;BME280;8720;48.488;9.202;2023-03-11T03:03:41;96021.28;;;7.59;47.01
17209;BME280;8720;48.488;9.202;2023-03-11T03:06:09;96017.91;;;7.55;47.00
17209;BME280;8720;48.488;9.202;2023-03-11T03:08:37;96028.50;;;7.49;46.97
17209;BME280;8720;48.488;9.202;2023-03-11T03:11:04;96037.22;;;7.47;47.17
17209;BME280;8720;48.488;9.202;2023-03-11T03:13:32;96054.69;;;7.43;47.21
17209;BME280;8720;48.488;9.202;2023-03-11T03:16:01;96058.22;;;7.41;47.04
17209;BME280;8720;48.488;9.202;2023-03-11T03:18:29;96053.16;;;7.36;46.97
17209;BME280;8720;48.488;9.202;2023-03-11T03:20:56;96055.06;;;7.29;46.96
17209;BME280;8720;48.488;9.202;2023-03-11T03:23:23;96026.75;;;7.19;46.91
17209;BME280;8720;48.488;9.202;2023-03-11T03:25:51;96035.38;;;7.19;46.97
17209;BME280;8720;48.488;9.202;2023-03-11T03:28:18;96020.78;;;7.14;46.92
17209;BME280;8720;48.488;9.202;2023-03-11T03:30:46;96021.75;;;7.10;46.80
17209;BME280;8720;48.488;9.202;2023-03-11T03:33:15;96027.06;;;7.07;46.88
17209;BME280;8720;48.488;9.202;2023-03-11T03:35:44;96022.13;;;6.98;46.76
17209;BME280;8720;48.488;9.202;2023-03-11T03:38:17;96046.31;;;7.00;46.92
17209;BME280;8720;48.488;9.202;2023-03-11T03:40:46;96047.25;;;6.97;46.77
17209;BME280;8720;48.488;9.202;2023-03-11T03:43:16;96060.31;;;6.94;47.03
17209;BME280;8720;48.488;9.202;2023-03-11T03:45:45;96056.00;;;6.93;46.66
17209;BME280;8720;48.488;9.202;2023-03-11T03:48:12;96058.66;;;6.92;46.77
17209;BME280;8720;48.488;9.202;2023-03-11T03:50:44;96047.66;;;6.82;46.83
17209;BME280;8720;48.488;9.202;2023-03-11T03:53:15;96045.91;;;6.81;46.69
17209;BME280;8720;48.488;9.202;2023-03-11T03:55:42;96062.28;;;6.85;46.52
17209;BME280;8720;48.488;9.202;2023-03-11T03:58:10;96058.03;;;6.82;46.76
17209;BME280;8720;48.488;9.202;2023-03-11T04:00:38;96064.16;;;6.80;46.61
17209;BME280;8720;48.488;9.202;2023-03-11T04:03:05;96069.50;;;6.74;46.72
17209;BME280;8720;48.488;9.202;2023-03-11T04:05:44;96072.19;;;6.69;46.52
17209;BME280;8720;48.488;9.202;2023-03-11T04:08:13;96078.41;;;6.64;46.67
17209;BME280;8720;48.488;9.202;2023-03-11T04:10:40;96084.56;;;6.60;46.52
17209;BME280;8720;48.488;9.202;2023-03-11T04:13:08;96086.47;;;6.53;46.39
17209;BME280;8720;48.488;9.202;2023-03-11T04:15:37;96087.47;;;6.48;46.69
17209;BME280;8720;48.488;9.202;2023-03-11T04:18:05;96094.50;;;6.42;46.48
17209;BME280;8720;48.488;9.202;2023-03-11T04:20:32;96099.00;;;6.36;46.50
17209;BME280;8720;48.488;9.202;2023-03-11T04:23:01;96101.72;;;6.30;46.35
17209;BME280;8720;48.488;9.202;2023-03-11T04:25:31;96105.31;;;6.24;46.18
17209;BME280;8720;48.488;9.202;2023-03-11T04:28:02;96107.13;;;6.19;46.38
17209;BME280;8720;48.488;9.202;2023-03-11T04:30:31;96101.16;;;6.16;46.52
17209;BME280;8720;48.488;9.202;2023-03-11T04:32:58;96105.53;;;6.14;46.34
17209;BME280;8720;48.488;9.202;2023-03-11T04:35:26;96108.19;;;6.11;46.32
17209;BME280;8720;48.488;9.202;2023-03-11T04:37:53;96094.50;;;6.04;46.22
17209;BME280;8720;48.488;9.202;2023-03-11T04:40:23;96095.41;;;6.02;46.40
17209;BME280;8720;48.488;9.202;2023-03-11T04:42:52;96092.91;;;5.97;46.39
17209;BME280;8720;48.488;9.202;2023-03-11T04:45:21;96080.94;;;5.90;46.35
17209;BME280;8720;48.488;9.202;2023-03-11T04:47:51;96085.41;;;5.84;46.47
17209;BME280;8720;48.488;9.202;2023-03-11T04:50:19;96086.38;;;5.77;46.24
17209;BME280;8720;48.488;9.202;2023-03-11T04:52:46;96079.63;;;5.70;46.14
17209;BME280;8720;48.488;9.202;2023-03-11T04:55:14;96092.66;;;5.65;46.29
17209;BME280;8720;48.488;9.202;2023-03-11T04:57:44;96087.59;;;5.61;46.25
17209;BME280;8720;48.488;9.202;2023-03-11T05:00:14;96104.97;;;5.55;46.29
17209;BME280;8720;48.488;9.202;2023-03-11T05:02:45;96123.19;;;5.52;46.31
17209;BME280;8720;48.488;9.202;2023-03-11T05:05:12;96109.47;;;5.47;46.34
17209;BME280;8720;48.488;9.202;2023-03-11T05:07:41;96111.25;;;5.45;46.35
17209;BME280;8720;48.488;9.202;2023-03-11T05:10:11;96115.59;;;5.43;46.26
17209;BME280;8720;48.488;9.202;2023-03-11T05:12:38;96115.56;;;5.45;46.28
17209;BME280;8720;48.488;9.202;2023-03-11T05:15:09;96114.69;;;5.44;46.20
17209;BME280;8720;48.488;9.202;2023-03-11T05:17:36;96110.41;;;5.43;46.19
17209;BME280;8720;48.488;9.202;2023-03-11T05:20:05;96124.22;;;5.44;46.25
17209;BME280;8720;48.488;9.202;2023-03-11T05:22:34;96121.69;;;5.41;46.28
17209;BME280;8720;48.488;9.202;2023-03-11T05:25:02;96126.94;;;5.36;46.00
17209;BME280;8720;48.488;9.202;2023-03-11T05:27:29;96130.38;;;5.38;46.25
17209;BME280;8720;48.488;9.202;2023-03-11T05:29:57;96120.06;;;5.35;46.11
17209;BME280;8720;48.488;9.202;2023-03-11T05:32:28;96116.69;;;5.32;46.35
17209;BME280;8720;48.488;9.202;2023-03-11T05:34:55;96125.34;;;5.29;46.26
17209;BME280;8720;48.488;9.202;2023-03-11T05:37:22;96135.75;;;5.28;46.28
17209;BME280;8720;48.488;9.202;2023-03-11T05:39:51;96142.69;;;5.27;46.35
17209;BME280;8720;48.488;9.202;2023-03-11T05:42:20;96141.81;;;5.27;46.34
17209;BME280;8720;48.488;9.202;2023-03-11T05:44:51;96138.34;;;5.28;46.17
17209;BME280;8720;48.488;9.202;2023-03-11T05:47:20;96145.28;;;5.27;46.34
17209;BME280;8720;48.488;9.202;2023-03-11T05:49:50;96137.50;;;5.27;46.52
17209;BME280;8720;48.488;9.202;2023-03-11T05:52:19;96142.66;;;5.29;46.46
17209;BME280;8720;48.488;9.202;2023-03-11T05:54:48;96135.19;;;5.58;46.27
17209;BME280;8720;48.488;9.202;2023-03-11T05:57:18;96134.38;;;5.56;45.88
17209;BME280;8720;48.488;9.202;2023-03-11T05:59:45;96130.16;;;5.50;46.09
17209;BME280;8720;48.488;9.202;2023-03-11T06:02:14;96128.47;;;5.48;46.04
17209;BME280;8720;48.488;9.202;2023-03-11T06:04:42;96125.03;;;5.47;46.05
17209;BME280;8720;48.488;9.202;2023-03-11T06:07:11;96128.47;;;5.49;46.32
17209;BME280;8720;48.488;9.202;2023-03-11T06:09:39;96143.13;;;5.50;46.18
17209;BME280;8720;48.488;9.202;2023-03-11T06:12:12;96156.91;;;5.52;46.40
17209;BME280;8720;48.488;9.202;2023-03-11T06:14:49;96148.22;;;5.53;46.40
17209;BME280;8720;48.488;9.202;2023-03-11T06:17:16;96154.22;;;5.59;46.21
17209;BME280;8720;48.488;9.202;2023-03-11T06:19:44;96155.88;;;5.63;46.56
17209;BME280;8720;48.488;9.202;2023-03-11T06:22:13;96151.44;;;5.68;46.34
17209;BME280;8720;48.488;9.202;2023-03-11T06:24:40;96149.63;;;5.73;46.34
17209;BME280;8720;48.488;9.202;2023-03-11T06:27:07;96154.66;;;5.79;46.50
17209;BME280;8720;48.488;9.202;2023-03-11T06:29:39;96166.72;;;5.84;46.34
17209;BME280;8720;48.488;9.202;2023-03-11T06:32:06;96165.75;;;5.90;46.30
17209;BME280;8720;48.488;9.202;2023-03-11T06:34:34;96168.19;;;5.97;46.37
17209;BME280;8720;48.488;9.202;2023-03-11T06:37:03;96172.41;;;6.03;46.48
17209;BME280;8720;48.488;9.202;2023-03-11T06:39:31;96180.03;;;6.10;46.42
17209;BME280;8720;48.488;9.202;2023-03-11T06:41:59;96168.66;;;6.16;46.21
17209;BME280;8720;48.488;9.202;2023-03-11T06:44:28;96169.41;;;6.22;46.26
17209;BME280;8720;48.488;9.202;2023-03-11T06:46:55;96180.50;;;6.29;46.19
17209;BME280;8720;48.488;9.202;2023-03-11T06:49:23;96193.38;;;6.35;46.28
17209;BME280;8720;48.488;9.202;2023-03-11T06:51:50;96193.25;;;6.41;46.22
17209;BME280;8720;48.488;9.202;2023-03-11T06:54:17;96196.56;;;6.48;46.06
17209;BME280;8720;48.488;9.202;2023-03-11T06:56:46;96194.63;;;6.56;46.11
17209;BME280;8720;48.488;9.202;2023-03-11T06:59:14;96203.13;;;6.65;46.18
17209;BME280;8720;48.488;9.202;2023-03-11T07:01:41;96214.09;;;6.78;46.22
17209;BME280;8720;48.488;9.202;2023-03-11T07:04:09;96218.91;;;6.94;46.65
17209;BME280;8720;48.488;9.202;2023-03-11T07:06:41;96226.28;;;7.12;46.37
17209;BME280;8720;48.488;9.202;2023-03-11T07:09:17;96217.09;;;7.33;46.36
17209;BME280;8720;48.488;9.202;2023-03-11T07:11:48;96191.00;;;7.38;46.24
17209;BME280;8720;48.488;9.202;2023-03-11T07:14:23;96207.50;;;7.70;45.99
17209;BME280;8720;48.488;9.202;2023-03-11T07:16:54;96204.47;;;7.85;45.97
17209;BME280;8720;48.488;9.202;2023-03-11T07:19:51;96218.06;;;7.98;45.89
17209;BME280;8720;48.488;9.202;2023-03-11T07:22:19;96216.00;;;8.09;45.71
17209;BME280;8720;48.488;9.202;2023-03-11T07:24:48;96219.31;;;8.15;45.32
17209;BME280;8720;48.488;9.202;2023-03-11T07:27:16;96222.19;;;8.37;45.84
17209;BME280;8720;48.488;9.202;2023-03-11T07:29:44;96230.41;;;8.53;45.44
17209;BME280;8720;48.488;9.202;2023-03-11T07:32:11;96241.38;;;8.65;45.46
17209;BME280;8720;48.488;9.202;2023-03-11T07:34:39;96230.44;;;8.82;45.53
17209;BME280;8720;48.488;9.202;2023-03-11T07:37:06;96236.03;;;8.97;45.30
17209;BME280;8720;48.488;9.202;2023-03-11T07:39:33;96239.28;;;9.05;44.88
17209;BME280;8720;48.488;9.202;2023-03-11T07:42:02;96237.38;;;9.10;44.48
17209;BME280;8720;48.488;9.202;2023-03-11T07:44:35;96245.13;;;9.13;44.40
17209;BME280;8720;48.488;9.202;2023-03-11T07:47:04;96237.53;;;9.06;44.08
17209;BME280;8720;48.488;9.202;2023-03-11T07:49:32;96249.53;;;9.11;43.94
17209;BME280;8720;48.488;9.202;2023-03-11T07:51:59;96232.34;;;9.04;44.01
17209;BME280;8720;48.488;9.202;2023-03-11T07:54:27;96246.81;;;9.14;44.10
17209;BME280;8720;48.488;9.202;2023-03-11T07:56:54;96243.13;;;9.22;44.17
17209;BME280;8720;48.488;9.202;2023-03-11T07:59:21;96258.63;;;9.26;43.81
17209;BME280;8720;48.488;9.202;2023-03-11T08:01:50;96254.25;;;9.27;43.68
17209;BME280;8720;48.488;9.202;2023-03-11T08:04:18;96262.97;;;9.26;43.56
17209;BME280;8720;48.488;9.202;2023-03-11T08:06:46;96268.31;;;9.23;43.32
17209;BME280;8720;48.488;9.202;2023-03-11T08:09:14;96267.59;;;9.18;43.22
17209;BME280;8720;48.488;9.202;2023-03-11T08:11:42;96265.19;;;9.11;43.38
17209;BME280;8720;48.488;9.202;2023-03-11T08:14:10;96260.94;;;9.07;43.22
17209;BME280;8720;48.488;9.202;2023-03-11T08:16:39;96263.63;;;9.04;43.35
17209;BME280;8720;48.488;9.202;2023-03-11T08:19:10;96258.53;;;9.01;43.41
17209;BME280;8720;48.488;9.202;2023-03-11T08:21:38;96266.34;;;9.01;43.27
17209;BME280;8720;48.488;9.202;2023-03-11T08:24:06;96269.00;;;9.00;43.20
17209;BME280;8720;48.488;9.202;2023-03-11T08:26:35;96263.91;;;8.95;43.28
17209;BME280;8720;48.488;9.202;2023-03-11T08:29:03;96277.69;;;9.00;43.27
17209;BME280;8720;48.488;9.202;2023-03-11T08:31:32;96275.00;;;9.03;43.13
17209;BME280;8720;48.488;9.202;2023-03-11T08:34:02;96273.25;;;9.02;43.25
17209;BME280;8720;48.488;9.202;2023-03-11T08:36:32;96273.19;;;9.05;43.12
17209;BME280;8720;48.488;9.202;2023-03-11T08:39:00;96281.69;;;9.12;43.28
17209;BME280;8720;48.488;9.202;2023-03-11T08:41:28;96277.41;;;9.09;43.38
17209;BME280;8720;48.488;9.202;2023-03-11T08:43:56;96285.94;;;9.14;43.09
17209;BME280;8720;48.488;9.202;2023-03-11T08:46:25;96285.06;;;9.15;42.99
17209;BME280;8720;48.488;9.202;2023-03-11T08:48:55;96294.63;;;9.15;42.84
17209;BME280;8720;48.488;9.202;2023-03-11T08:51:24;96280.09;;;9.06;42.68
17209;BME280;8720;48.488;9.202;2023-03-11T08:53:53;96295.63;;;9.11;42.91
17209;BME280;8720;48.488;9.202;2023-03-11T08:56:21;96286.06;;;9.11;42.59
17209;BME280;8720;48.488;9.202;2023-03-11T08:58:48;96284.91;;;9.20;43.12
17209;BME280;8720;48.488;9.202;2023-03-11T09:01:16;96292.56;;;9.26;43.12
17209;BME280;8720;48.488;9.202;2023-03-11T09:03:45;96298.56;;;9.28;42.81
17209;BME280;8720;48.488;9.202;2023-03-11T09:06:15;96280.53;;;9.21;42.80
17209;BME280;8720;48.488;9.202;2023-03-11T09:08:43;96285.47;;;9.30;42.54
17209;BME280;8720;48.488;9.202;2023-03-11T09:11:16;96287.06;;;9.35;42.48
17209;BME280;8720;48.488;9.202;2023-03-11T09:13:44;96293.81;;;9.42;42.39
17209;BME280;8720;48.488;9.202;2023-03-11T09:16:14;96290.94;;;9.50;42.70
17209;BME280;8720;48.488;9.202;2023-03-11T09:18:41;96299.34;;;9.59;42.70
17209;BME280;8720;48.488;9.202;2023-03-11T09:21:09;96302.41;;;9.72;42.38
17209;BME280;8720;48.488;9.202;2023-03-11T09:23:37;96299.31;;;9.87;42.50
17209;BME280;8720;48.488;9.202;2023-03-11T09:26:05;96306.66;;;10.02;42.50
17209;BME280;8720;48.488;9.202;2023-03-11T09:28:33;96302.69;;;10.17;42.39
17209;BME280;8720;48.488;9.202;2023-03-11T09:31:04;96306.44;;;10.34;42.22
17209;BME280;8720;48.488;9.202;2023-03-11T09:33:36;96301.53;;;10.50;42.06
17209;BME280;8720;48.488;9.202;2023-03-11T09:36:05;96295.16;;;10.57;41.78
17209;BME280;8720;48.488;9.202;2023-03-11T09:38:33;96308.47;;;10.75;41.77
17209;BME280;8720;48.488;9.202;2023-03-11T09:41:07;96303.63;;;10.88;41.87
17209;BME280;8720;48.488;9.202;2023-03-11T09:43:54;96301.56;;;10.96;41.89
17209;BME280;8720;48.488;9.202;2023-03-11T09:50:13;96319.44;;;11.08;41.34
17209;BME280;8720;48.488;9.202;2023-03-11T09:52:52;96320.53;;;11.03;40.67
17209;BME280;8720;48.488;9.202;2023-03-11T09:55:41;96318.47;;;10.87;40.92
17209;BME280;8720;48.488;9.202;2023-03-11T09:58:20;96323.13;;;10.79;40.75
17209;BME280;8720;48.488;9.202;2023-03-11T10:00:50;96320.63;;;10.76;40.47
17209;BME280;8720;48.488;9.202;2023-03-11T10:03:29;96323.22;;;10.76;40.56
17209;BME280;8720;48.488;9.202;2023-03-11T10:06:11;96317.19;;;10.74;40.57
17209;BME280;8720;48.488;9.202;2023-03-11T10:08:46;96319.13;;;10.69;40.35
17209;BME280;8720;48.488;9.202;2023-03-11T10:11:41;96317.81;;;10.58;40.66
17209;BME280;8720;48.488;9.202;2023-03-11T10:17:21;96316.69;;;10.40;40.63
17209;BME280;8720;48.488;9.202;2023-03-11T10:20:00;96319.34;;;10.39;40.63
17209;BME280;8720;48.488;9.202;2023-03-11T10:22:38;96317.59;;;10.39;40.43
17209;BME280;8720;48.488;9.202;2023-03-11T10:25:14;96315.78;;;10.41;40.30
17209;BME280;8720;48.488;9.202;2023-03-11T10:27:48;96322.78;;;10.41;40.34
17209;BME280;8720;48.488;9.202;2023-03-11T10:30:24;96323.41;;;10.47;40.36
17209;BME280;8720;48.488;9.202;2023-03-11T10:33:00;96319.69;;;10.54;40.31
17209;BME280;8720;48.488;9.202;2023-03-11T10:35:38;96322.81;;;10.64;40.25
17209;BME280;8720;48.488;9.202;2023-03-11T10:38:14;96317.19;;;10.74;39.96
17209;BME280;8720;48.488;9.202;2023-03-11T10:40:45;96310.78;;;10.83;39.61
17209;BME280;8720;48.488;9.202;2023-03-11T10:43:17;96307.91;;;10.90;39.76
17209;BME280;8720;48.488;9.202;2023-03-11T10:45:46;96303.31;;;10.95;39.54
17209;BME280;8720;48.488;9.202;2023-03-11T10:48:19;96295.38;;;10.98;39.29
17209;BME280;8720;48.488;9.202;2023-03-11T10:50:53;96302.09;;;11.06;39.44
17209;BME280;8720;48.488;9.202;2023-03-11T10:53:23;96308.91;;;11.10;39.19
17209;BME280;8720;48.488;9.202;2023-03-11T10:55:54;96298.28;;;11.14;38.97
17209;BME280;8720;48.488;9.202;2023-03-11T10:58:24;96298.88;;;11.21;39.19
17209;BME280;8720;48.488;9.202;2023-03-11T11:01:04;96297.69;;;11.29;39.20
17209;BME280;8720;48.488;9.202;2023-03-11T11:03:35;96293.06;;;11.36;39.20
17209;BME280;8720;48.488;9.202;2023-03-11T11:06:24;96305.81;;;11.45;39.16
17209;BME280;8720;48.488;9.202;2023-03-11T11:09:14;96301.25;;;11.50;39.09
17209;BME280;8720;48.488;9.202;2023-03-11T11:11:43;96306.53;;;11.48;39.40
17209;BME280;8720;48.488;9.202;2023-03-11T11:14:40;96307.19;;;11.55;39.04
17209;BME280;8720;48.488;9.202;2023-03-11T11:17:17;96297.28;;;11.61;39.16
17209;BME280;8720;48.488;9.202;2023-03-11T11:19:48;96301.34;;;11.70;38.92
17209;BME280;8720;48.488;9.202;2023-03-11T11:22:18;96313.22;;;11.78;38.59
17209;BME280;8720;48.488;9.202;2023-03-11T11:24:48;96306.69;;;11.88;38.50
17209;BME280;8720;48.488;9.202;2023-03-11T11:27:20;96309.16;;;11.93;38.36
17209;BME280;8720;48.488;9.202;2023-03-11T11:30:13;96301.28;;;11.93;38.57
17209;BME280;8720;48.488;9.202;2023-03-11T11:32:41;96297.72;;;11.94;37.93
17209;BME280;8720;48.488;9.202;2023-03-11T11:35:14;96301.22;;;11.95;37.98
17209;BME280;8720;48.488;9.202;2023-03-11T11:37:46;96303.84;;;11.95;37.79
17209;BME280;8720;48.488;9.202;2023-03-11T11:40:25;96297.72;;;11.94;37.66
17209;BME280;8720;48.488;9.202;2023-03-11T11:42:56;96297.66;;;11.96;37.59
17209;BME280;8720;48.488;9.202;2023-03-11T11:45:38;96296.84;;;11.95;37.55
17209;BME280;8720;48.488;9.202;2023-03-11T11:48:16;96281.09;;;11.95;37.67
17209;BME280;8720;48.488;9.202;2023-03-11T11:50:51;96287.88;;;12.01;37.56
17209;BME280;8720;48.488;9.202;2023-03-11T11:53:30;96291.94;;;12.08;37.39
17209;BME280;8720;48.488;9.202;2023-03-11T11:56:01;96280.53;;;12.09;37.16
17209;BME280;8720;48.488;9.202;2023-03-11T11:58:30;96281.19;;;12.14;37.08
17209;BME280;8720;48.488;9.202;2023-03-11T12:01:18;96275.34;;;12.07;37.13
17209;BME280;8720;48.488;9.202;2023-03-11T12:04:26;96273.16;;;11.97;37.46
17209;BME280;8720;48.488;9.202;2023-03-11T12:07:17;96273.50;;;11.89;37.28
17209;BME280;8720;48.488;9.202;2023-03-11T12:09:59;96274.47;;;11.86;37.25
17209;BME280;8720;48.488;9.202;2023-03-11T12:12:36;96279.78;;;11.85;37.06
17209;BME280;8720;48.488;9.202;2023-03-11T12:15:15;96275.38;;;11.85;37.00
17209;BME280;8720;48.488;9.202;2023-03-11T12:17:50;96268.44;;;11.84;36.76
17209;BME280;8720;48.488;9.202;2023-03-11T12:20:26;96265.88;;;11.83;36.81
17209;BME280;8720;48.488;9.202;2023-03-11T12:23:23;96274.84;;;11.77;37.17
17209;BME280;8720;48.488;9.202;2023-03-11T12:26:11;96260.16;;;11.73;36.92
17209;BME280;8720;48.488;9.202;2023-03-11T12:28:45;96272.47;;;11.71;36.83
17209;BME280;8720;48.488;9.202;2023-03-11T12:31:15;96266.56;;;11.65;36.83
17209;BME280;8720;48.488;9.202;2023-03-11T12:33:45;96261.53;;;11.60;36.77
17209;BME280;8720;48.488;9.202;2023-03-11T12:36:27;96256.31;;;11.60;36.63
17209;BME280;8720;48.488;9.202;2023-03-11T12:38:58;96254.47;;;11.62;36.58
17209;BME280;8720;48.488;9.202;2023-03-11T12:41:31;96249.28;;;11.61;36.34
17209;BME280;8720;48.488;9.202;2023-03-11T12:44:24;96240.75;;;11.56;36.72
17209;BME280;8720;48.488;9.202;2023-03-11T12:47:29;96244.59;;;11.47;36.97
17209;BME280;8720;48.488;9.202;2023-03-11T12:50:39;96234.63;;;11.35;37.15
17209;BME280;8720;48.488;9.202;2023-03-11T12:53:16;96241.78;;;11.30;36.63
17209;BME280;8720;48.488;9.202;2023-03-11T12:56:01;96244.59;;;11.26;36.86
17209;BME280;8720;48.488;9.202;2023-03-11T12:59:06;96229.13;;;11.20;37.19
17209;BME280;8720;48.488;9.202;2023-03-11T13:02:04;96237.09;;;11.17;37.13
17209;BME280;8720;48.488;9.202;2023-03-11T13:04:58;96234.44;;;11.18;37.12
17209;BME280;8720;48.488;9.202;2023-03-11T13:07:40;96221.50;;;11.14;36.74
17209;BME280;8720;48.488;9.202;2023-03-11T13:10:33;96238.06;;;11.14;37.00
17209;BME280;8720;48.488;9.202;2023-03-11T13:13:42;96239.91;;;11.12;37.20
17209;BME280;8720;48.488;9.202;2023-03-11T13:16:35;96245.19;;;11.11;37.06
17209;BME280;8720;48.488;9.202;2023-03-11T13:19:46;96240.13;;;11.06;37.16
17209;BME280;8720;48.488;9.202;2023-03-11T13:23:20;96241.09;;;11.04;37.19
17209;BME280;8720;48.488;9.202;2023-03-11T13:25:36;96235.84;;;11.04;36.77
17209;BME280;8720;48.488;9.202;2023-03-11T13:28:29;96233.94;;;11.09;37.04
17209;BME280;8720;48.488;9.202;2023-03-11T13:31:16;96237.09;;;11.17;37.00
17209;BME280;8720;48.488;9.202;2023-03-11T13:33:52;96245.56;;;11.23;36.60
17209;BME280;8720;48.488;9.202;2023-03-11T13:36:41;96239.16;;;11.30;36.67
17209;BME280;8720;48.488;9.202;2023-03-11T13:39:33;96247.81;;;11.32;36.76
17209;BME280;8720;48.488;9.202;2023-03-11T13:42:19;96245.16;;;11.34;36.60
17209;BME280;8720;48.488;9.202;2023-03-11T13:44:50;96251.13;;;11.37;36.44
17209;BME280;8720;48.488;9.202;2023-03-11T13:47:20;96249.22;;;11.41;36.22
17209;BME280;8720;48.488;9.202;2023-03-11T13:49:53;96243.19;;;11.39;35.96
17209;BME280;8720;48.488;9.202;2023-03-11T13:52:30;96249.16;;;11.42;36.09